createdAt,value
2016-12-08T00:00:46.859Z,27.5
2016-12-08T00:01:44.679Z,27.5
2016-12-08T00:02:44.729Z,27.5
2016-12-08T00:03:46.911Z,27.5
2016-12-08T00:04:46.948Z,27.5
2016-12-08T00:05:44.845Z,27.5
2016-12-08T00:06:47.117Z,27.5
2016-12-08T00:07:47.222Z,27.5
2016-12-08T00:08:45.104Z,27.5
2016-12-08T00:09:47.258Z,27.5
2016-12-08T00:10:45.188Z,27.5
2016-12-08T00:11:47.340Z,27.5
2016-12-08T00:12:47.465Z,27.5
2016-12-08T00:13:45.291Z,27.5
2016-12-08T00:14:45.358Z,27.5
2016-12-08T00:15:47.617Z,27.5
2016-12-08T00:16:47.709Z,27.5
2016-12-08T00:17:45.448Z,27.5
2016-12-08T00:18:45.570Z,27.5
2016-12-08T00:19:47.684Z,27.5
2016-12-08T00:20:45.568Z,27.4
2016-12-08T00:21:47.831Z,27.5
2016-12-08T00:22:47.941Z,27.5
2016-12-08T00:23:47.902Z,27.5
2016-12-08T00:24:45.880Z,27.5
2016-12-08T00:25:45.871Z,27.5
2016-12-08T00:26:48.106Z,27.5
2016-12-08T00:27:48.174Z,27.5
2016-12-08T00:28:46.004Z,27.4
2016-12-08T00:29:46.199Z,27.5
2016-12-08T00:30:48.425Z,27.5
2016-12-08T00:31:48.421Z,27.5
2016-12-08T00:32:48.346Z,27.5
2016-12-08T00:33:46.322Z,27.4
2016-12-08T00:34:46.322Z,27.5
2016-12-08T00:35:48.634Z,27.5
2016-12-08T00:36:48.759Z,27.5
2016-12-08T00:37:48.766Z,27.4
2016-12-08T00:38:46.651Z,27.4
2016-12-08T00:39:48.924Z,27.4
2016-12-08T00:40:48.961Z,27.4
2016-12-08T00:41:49.005Z,27.4
2016-12-08T00:42:46.937Z,27.4
2016-12-08T00:43:49.114Z,27.4
2016-12-08T00:44:49.113Z,27.4
2016-12-08T00:45:47.049Z,27.4
2016-12-08T00:46:47.123Z,27.4
2016-12-08T00:47:49.316Z,27.4
2016-12-08T00:48:49.399Z,27.4
2016-12-08T00:49:47.207Z,27.4
2016-12-08T00:50:49.367Z,27.4
2016-12-08T00:51:47.248Z,27.4
2016-12-08T00:52:47.292Z,27.4
2016-12-08T00:53:47.326Z,27.4
2016-12-08T00:54:49.577Z,27.4
2016-12-08T00:55:47.339Z,27.4
2016-12-08T00:56:47.521Z,27.4
2016-12-08T00:57:49.781Z,27.4
2016-12-08T00:58:49.850Z,27.4
2016-12-08T00:59:47.575Z,27.4
2016-12-08T01:00:49.874Z,27.4
2016-12-08T01:01:47.648Z,27.4
2016-12-08T01:02:49.918Z,27.4
2016-12-08T01:03:50.015Z,27.4
2016-12-08T01:04:50.039Z,27.4
2016-12-08T01:11:39.054Z,27.4
2016-12-08T01:12:39.055Z,27.5
2016-12-08T01:13:37.029Z,27.5
2016-12-08T01:14:36.998Z,27.5
2016-12-08T01:15:37.085Z,27.5
2016-12-08T01:16:37.184Z,27.5
2016-12-08T01:17:39.340Z,27.5
2016-12-08T01:18:37.191Z,27.5
2016-12-08T01:19:37.386Z,27.5
2016-12-08T01:20:37.461Z,27.4
2016-12-08T01:21:39.595Z,27.4
2016-12-08T01:22:39.724Z,27.4
2016-12-08T01:23:37.601Z,27.4
2016-12-08T01:24:37.673Z,27.4
2016-12-08T01:25:39.771Z,27.4
2016-12-08T01:26:39.885Z,27.4
2016-12-08T01:27:39.926Z,27.4
2016-12-08T01:28:37.858Z,27.4
2016-12-08T01:29:37.899Z,27.4
2016-12-08T01:30:40.086Z,27.4
2016-12-08T01:31:40.071Z,27.4
2016-12-08T01:32:37.987Z,27.4
2016-12-08T01:33:40.258Z,27.4
2016-12-08T01:34:40.277Z,27.4
2016-12-08T01:35:38.096Z,27.4
2016-12-08T01:36:40.319Z,27.4
2016-12-08T01:37:38.154Z,27.4
2016-12-08T01:38:40.426Z,27.4
2016-12-08T01:39:40.540Z,27.4
2016-12-08T01:40:38.339Z,27.4
2016-12-08T01:41:40.621Z,27.4
2016-12-08T01:42:38.360Z,27.4
2016-12-08T01:43:40.706Z,27.4
2016-12-08T01:44:38.616Z,27.4
2016-12-08T01:45:40.781Z,27.4
2016-12-08T01:46:38.681Z,27.4
2016-12-08T01:47:40.984Z,27.4
2016-12-08T01:48:38.741Z,27.4
2016-12-08T01:49:40.938Z,27.3
2016-12-08T01:50:40.981Z,27.3
2016-12-08T01:51:41.039Z,27.3
2016-12-08T01:52:41.142Z,27.4
2016-12-08T01:53:41.127Z,27.3
2016-12-08T01:54:39.055Z,27.3
2016-12-08T01:55:41.167Z,27.3
2016-12-08T01:56:41.296Z,27.3
2016-12-08T01:57:39.127Z,27.3
2016-12-08T01:58:39.176Z,27.3
2016-12-08T01:59:39.179Z,27.3
2016-12-08T02:00:39.205Z,27.3
2016-12-08T02:01:39.330Z,27.3
2016-12-08T02:02:39.393Z,27.3
2016-12-08T02:03:39.418Z,27.3
2016-12-08T02:04:39.471Z,27.3
2016-12-08T02:05:41.722Z,27.3
2016-12-08T02:06:39.532Z,27.3
2016-12-08T02:07:41.838Z,27.3
2016-12-08T02:08:39.743Z,27.3
2016-12-08T02:09:42.000Z,27.3
2016-12-08T02:10:42.100Z,27.3
2016-12-08T02:11:42.094Z,27.3
2016-12-08T02:12:39.915Z,27.3
2016-12-08T02:13:42.266Z,27.3
2016-12-08T02:14:40.146Z,27.3
2016-12-08T02:15:42.324Z,27.3
2016-12-08T02:16:42.335Z,27.3
2016-12-08T02:17:42.412Z,27.3
2016-12-08T02:18:42.418Z,27.3
2016-12-08T02:19:40.248Z,27.3
2016-12-08T02:20:40.450Z,27.3
2016-12-08T02:21:42.615Z,27.3
2016-12-08T02:22:40.392Z,27.3
2016-12-08T02:23:42.650Z,27.3
2016-12-08T02:24:42.661Z,27.3
2016-12-08T02:25:42.690Z,27.3
2016-12-08T02:26:40.633Z,27.3
2016-12-08T02:27:40.649Z,27.3
2016-12-08T02:28:42.751Z,27.3
2016-12-08T02:29:42.873Z,27.3
2016-12-08T02:30:42.929Z,27.3
2016-12-08T02:31:40.654Z,27.2
2016-12-08T02:32:42.949Z,27.2
2016-12-08T02:33:42.935Z,27.2
2016-12-08T02:34:43.067Z,27.3
2016-12-08T02:35:43.034Z,27.2
2016-12-08T02:36:40.919Z,27.3
2016-12-08T02:37:41.008Z,27.2
2016-12-08T02:38:41.692Z,27.2
2016-12-08T02:39:41.312Z,27.3
2016-12-08T02:40:43.594Z,27.3
2016-12-08T02:41:41.404Z,27.2
2016-12-08T02:42:44.740Z,27.2
2016-12-08T02:43:44.319Z,27.2
2016-12-08T02:44:43.465Z,27.2
2016-12-08T02:45:42.344Z,27.2
2016-12-08T02:46:41.474Z,27.2
2016-12-08T02:47:41.710Z,27.2
2016-12-08T02:48:43.894Z,27.2
2016-12-08T02:49:45.517Z,27.2
2016-12-08T02:50:41.820Z,27.2
2016-12-08T02:51:43.996Z,27.2
2016-12-08T02:52:43.921Z,27.2
2016-12-08T02:53:44.913Z,27.2
2016-12-08T02:54:44.070Z,27.2
2016-12-08T02:55:42.125Z,27.2
2016-12-08T02:56:42.082Z,27.2
2016-12-08T02:57:42.174Z,27.2
2016-12-08T02:58:42.232Z,27.2
2016-12-08T02:59:42.176Z,27.2
2016-12-08T03:00:44.490Z,27.2
2016-12-08T03:01:44.672Z,27.2
2016-12-08T03:02:42.370Z,27.2
2016-12-08T03:03:42.508Z,27.2
2016-12-08T03:04:43.150Z,27.2
2016-12-08T03:05:44.786Z,27.2
2016-12-08T03:06:42.777Z,27.2
2016-12-08T03:07:42.688Z,27.2
2016-12-08T03:08:42.620Z,27.2
2016-12-08T03:09:46.247Z,27.2
2016-12-08T03:10:42.727Z,27.2
2016-12-08T03:11:42.904Z,27.2
2016-12-08T03:12:42.919Z,27.2
2016-12-08T03:13:45.115Z,27.2
2016-12-08T03:14:43.088Z,27.2
2016-12-08T03:15:43.175Z,27.2
2016-12-08T03:16:43.224Z,27.2
2016-12-08T03:17:43.142Z,27.2
2016-12-08T03:18:43.313Z,27.2
2016-12-08T03:19:45.525Z,27.2
2016-12-08T03:20:43.466Z,27.2
2016-12-08T03:21:43.595Z,27.2
2016-12-08T03:22:43.672Z,27.2
2016-12-08T03:23:45.849Z,27.2
2016-12-08T03:24:44.700Z,27.2
2016-12-08T03:25:47.445Z,27.2
2016-12-08T03:26:45.015Z,27.2
2016-12-08T03:27:46.052Z,27.2
2016-12-08T03:28:43.907Z,27.2
2016-12-08T03:29:46.100Z,27.2
2016-12-08T03:30:43.799Z,27.2
2016-12-08T03:31:43.924Z,27.2
2016-12-08T03:32:46.175Z,27.2
2016-12-08T03:33:43.963Z,27.2
2016-12-08T03:34:43.963Z,27.2
2016-12-08T03:35:46.274Z,27.2
2016-12-08T03:36:44.152Z,27.2
2016-12-08T03:37:46.418Z,27.2
2016-12-08T03:38:44.307Z,27.2
2016-12-08T03:39:46.417Z,27.2
2016-12-08T03:40:44.415Z,27.2
2016-12-08T03:41:46.580Z,27.2
2016-12-08T03:42:46.680Z,27.2
2016-12-08T03:43:47.605Z,27.2
2016-12-08T03:44:47.590Z,27.2
2016-12-08T03:45:47.595Z,27.1
2016-12-08T03:46:47.804Z,27.1
2016-12-08T03:47:47.927Z,27.2
2016-12-08T03:48:47.939Z,27.2
2016-12-08T03:49:48.043Z,27.2
2016-12-08T03:50:48.087Z,27.2
2016-12-08T03:51:48.008Z,27.2
2016-12-08T03:52:48.023Z,27.2
2016-12-08T03:53:48.079Z,27.2
2016-12-08T03:54:48.185Z,27.2
2016-12-08T03:55:48.198Z,27.2
2016-12-08T03:56:48.347Z,27.2
2016-12-08T03:57:48.312Z,27.2
2016-12-08T03:58:49.832Z,27.2
2016-12-08T03:59:49.969Z,27.2
2016-12-08T04:00:49.853Z,27.2
2016-12-08T04:01:49.942Z,27.2
2016-12-08T04:02:49.866Z,27.2
2016-12-08T04:03:49.905Z,27.2
2016-12-08T04:04:50.050Z,27.2
2016-12-08T04:05:49.989Z,27.2
2016-12-08T04:06:50.107Z,27.2
2016-12-08T04:07:49.998Z,27.2
2016-12-08T04:08:50.027Z,27.2
2016-12-08T04:09:50.107Z,27.2
2016-12-08T04:10:50.187Z,27.2
2016-12-08T04:11:50.266Z,27.2
2016-12-08T04:12:50.257Z,27.2
2016-12-08T04:13:50.384Z,27.2
2016-12-08T04:14:50.382Z,27.2
2016-12-08T04:15:50.371Z,27.2
2016-12-08T04:16:50.491Z,27.2
2016-12-08T04:17:50.575Z,27.2
2016-12-08T04:18:50.487Z,27.1
2016-12-08T04:19:50.616Z,27.1
2016-12-08T04:20:50.738Z,27.1
2016-12-08T04:21:50.667Z,27.2
2016-12-08T04:22:50.777Z,27.1
2016-12-08T04:23:50.854Z,27.1
2016-12-08T04:24:50.928Z,27.1
2016-12-08T04:25:50.866Z,27.2
2016-12-08T04:26:50.898Z,27.1
2016-12-08T04:27:51.052Z,27.1
2016-12-08T04:28:51.618Z,27.1
2016-12-08T04:29:51.102Z,27.1
2016-12-08T04:30:51.111Z,27.1
2016-12-08T04:31:51.151Z,27.1
2016-12-08T04:32:51.291Z,27.1
2016-12-08T04:33:51.293Z,27.1
2016-12-08T04:34:51.361Z,27.1
2016-12-08T04:35:51.372Z,27.2
2016-12-08T04:36:51.359Z,27.1
2016-12-08T04:37:51.397Z,27.1
2016-12-08T04:38:51.572Z,27.2
2016-12-08T04:39:51.574Z,27.2
2016-12-08T04:40:51.613Z,27.1
2016-12-08T04:41:51.728Z,27.1
2016-12-08T04:42:51.808Z,27.1
2016-12-08T04:43:51.804Z,27.1
2016-12-08T04:44:51.822Z,27.1
2016-12-08T04:45:51.851Z,27.1
2016-12-08T04:46:51.901Z,27.1
2016-12-08T04:47:51.957Z,27.1
2016-12-08T04:48:52.124Z,27.1
2016-12-08T04:49:52.153Z,27.1
2016-12-08T04:50:52.069Z,27.1
2016-12-08T04:51:52.107Z,27.1
2016-12-08T04:52:52.815Z,27.1
2016-12-08T04:53:52.326Z,27.1
2016-12-08T04:54:52.298Z,27.1
2016-12-08T04:55:52.380Z,27.1
2016-12-08T04:56:52.373Z,27.1
2016-12-08T04:57:52.396Z,27.1
2016-12-08T04:58:52.438Z,27.1
2016-12-08T04:59:52.500Z,27.1
2016-12-08T05:00:52.496Z,27.1
2016-12-08T05:01:52.582Z,27.1
2016-12-08T05:02:52.625Z,27.1
2016-12-08T05:03:52.686Z,27.1
2016-12-08T05:04:52.713Z,27.1
2016-12-08T05:05:52.718Z,27.1
2016-12-08T05:06:52.840Z,27.1
2016-12-08T05:07:52.862Z,27.1
2016-12-08T05:08:52.842Z,27.1
2016-12-08T05:09:52.813Z,27.1
2016-12-08T05:10:52.838Z,27.1
2016-12-08T05:11:52.832Z,27.1
2016-12-08T05:12:52.842Z,27.1
2016-12-08T05:13:52.881Z,27.1
2016-12-08T05:14:52.976Z,27.1
2016-12-08T05:15:53.021Z,27.1
2016-12-08T05:16:53.054Z,27.1
2016-12-08T05:17:53.064Z,27.1
2016-12-08T05:18:53.207Z,27.1
2016-12-08T05:19:53.269Z,27.1
2016-12-08T05:20:53.319Z,27.1
2016-12-08T05:21:53.380Z,27.1
2016-12-08T05:22:52.880Z,27.2
2016-12-08T05:23:49.191Z,27.4
2016-12-08T05:24:51.302Z,27.6
2016-12-08T05:25:51.335Z,27.7
2016-12-08T05:26:49.172Z,27.9
2016-12-08T05:27:49.188Z,28
2016-12-08T05:28:49.340Z,28.3
2016-12-08T05:29:51.439Z,28.6
2016-12-08T05:30:49.294Z,28.8
2016-12-08T05:31:51.591Z,29
2016-12-08T05:32:51.564Z,29.2
2016-12-08T05:33:49.363Z,29.4
2016-12-08T05:34:49.392Z,29.5
2016-12-08T05:35:51.744Z,29.6
2016-12-08T05:36:49.665Z,29.7
2016-12-08T05:37:49.627Z,29.8
2016-12-08T05:38:49.804Z,29.9
2016-12-08T05:39:52.014Z,29.9
2016-12-08T05:40:52.040Z,30
2016-12-08T05:41:49.868Z,30
2016-12-08T05:42:52.161Z,30
2016-12-08T05:43:50.087Z,30
2016-12-08T05:44:50.053Z,30
2016-12-08T05:45:52.293Z,30.1
2016-12-08T05:46:50.178Z,30.1
2016-12-08T05:47:52.364Z,30.1
2016-12-08T05:48:52.470Z,30.1
2016-12-08T05:49:52.520Z,30.1
2016-12-08T05:50:52.536Z,30.1
2016-12-08T05:51:50.524Z,30.2
2016-12-08T05:52:51.026Z,30.2
2016-12-08T05:53:52.705Z,30.3
2016-12-08T05:54:52.797Z,30.3
2016-12-08T05:55:50.662Z,30.3
2016-12-08T05:56:50.688Z,30.4
2016-12-08T05:57:52.927Z,30.4
2016-12-08T05:58:50.829Z,30.4
2016-12-08T05:59:50.935Z,30.5
2016-12-08T06:00:51.084Z,30.5
2016-12-08T06:01:51.122Z,30.5
2016-12-08T06:02:51.126Z,30.5
2016-12-08T06:03:51.124Z,30.5
2016-12-08T06:04:53.353Z,30.6
2016-12-08T06:05:51.238Z,30.6
2016-12-08T06:06:51.415Z,30.6
2016-12-08T06:07:51.425Z,30.6
2016-12-08T06:08:51.447Z,30.6
2016-12-08T06:09:51.514Z,30.6
2016-12-08T06:10:51.570Z,30.6
2016-12-08T06:11:51.716Z,30.6
2016-12-08T06:12:51.766Z,30.6
2016-12-08T06:13:54.002Z,30.6
2016-12-08T06:14:51.886Z,30.6
2016-12-08T06:15:54.093Z,30.6
2016-12-08T06:16:51.840Z,30.6
2016-12-08T06:17:54.101Z,30.6
2016-12-08T06:18:54.155Z,30.6
2016-12-08T06:19:54.250Z,30.6
2016-12-08T06:20:54.221Z,30.6
2016-12-08T06:21:54.332Z,30.6
2016-12-08T06:22:52.104Z,30.6
2016-12-08T06:23:54.314Z,30.7
2016-12-08T06:24:52.161Z,30.7
2016-12-08T06:25:52.184Z,30.7
2016-12-08T06:26:52.285Z,30.7
2016-12-08T06:27:54.472Z,30.7
2016-12-08T06:28:52.368Z,30.7
2016-12-08T06:29:52.470Z,30.7
2016-12-08T06:30:52.413Z,30.7
2016-12-08T06:31:54.787Z,30.6
2016-12-08T06:32:52.803Z,30.6
2016-12-08T06:33:52.659Z,30.7
2016-12-08T06:34:52.573Z,30.7
2016-12-08T06:35:52.681Z,30.7
2016-12-08T06:36:54.900Z,30.7
2016-12-08T06:37:54.921Z,30.6
2016-12-08T06:38:54.941Z,30.6
2016-12-08T06:39:52.845Z,30.6
2016-12-08T06:40:55.171Z,30.6
2016-12-08T06:41:52.989Z,30.6
2016-12-08T06:42:53.108Z,30.7
2016-12-08T06:43:55.264Z,30.6
2016-12-08T06:44:55.252Z,30.7
2016-12-08T06:45:55.307Z,30.7
2016-12-08T06:46:55.349Z,30.7
2016-12-08T06:47:53.203Z,30.7
2016-12-08T06:48:53.290Z,30.7
2016-12-08T06:49:55.479Z,30.6
2016-12-08T06:50:56.373Z,30.6
2016-12-08T06:51:55.643Z,30.6
2016-12-08T06:52:55.765Z,30.6
2016-12-08T06:53:56.425Z,30.6
2016-12-08T06:54:55.772Z,30.6
2016-12-08T06:55:53.575Z,30.5
2016-12-08T06:56:53.658Z,30.5
2016-12-08T06:57:53.778Z,30.6
2016-12-08T06:58:53.679Z,30.6
2016-12-08T06:59:55.936Z,30.5
2016-12-08T07:00:55.986Z,30.6
2016-12-08T07:01:53.889Z,30.6
2016-12-08T07:02:53.816Z,30.6
2016-12-08T07:03:56.090Z,30.5
2016-12-08T07:04:53.879Z,30.5
2016-12-08T07:05:53.970Z,30.6
2016-12-08T07:06:56.224Z,30.6
2016-12-08T07:07:54.246Z,30.7
2016-12-08T07:08:56.382Z,30.6
2016-12-08T07:09:56.486Z,30.5
2016-12-08T07:10:54.399Z,30.5
2016-12-08T07:11:56.591Z,30.3
2016-12-08T07:12:56.579Z,29.7
2016-12-08T07:13:54.606Z,29.4
2016-12-08T07:14:54.615Z,28.9
2016-12-08T07:15:54.548Z,28.6
2016-12-08T07:16:56.851Z,28.5
2016-12-08T07:17:56.881Z,28.1
2016-12-08T07:18:54.731Z,27.6
2016-12-08T07:19:56.872Z,27
2016-12-08T07:20:56.970Z,26.8
2016-12-08T07:21:54.859Z,26.7
2016-12-08T07:22:56.993Z,26.7
2016-12-08T07:23:55.613Z,26.7
2016-12-08T07:24:55.014Z,26.7
2016-12-08T07:25:56.320Z,26.7
2016-12-08T07:26:55.103Z,26.7
2016-12-08T07:27:57.992Z,26.7
2016-12-08T07:28:57.371Z,26.8
2016-12-08T07:29:57.452Z,26.8
2016-12-08T07:30:57.391Z,26.9
2016-12-08T07:31:55.229Z,27
2016-12-08T07:32:56.681Z,27.1
2016-12-08T07:33:55.326Z,27.1
2016-12-08T07:34:55.997Z,27.2
2016-12-08T07:35:57.521Z,27.3
2016-12-08T07:36:55.371Z,27.5
2016-12-08T07:37:55.506Z,27.5
2016-12-08T07:38:55.466Z,27.5
2016-12-08T07:39:55.576Z,27.5
2016-12-08T07:40:57.839Z,27.5
2016-12-08T07:41:57.906Z,27.6
2016-12-08T07:42:55.809Z,27.6
2016-12-08T07:43:55.907Z,27.6
2016-12-08T07:44:55.932Z,27.6
2016-12-08T07:45:58.923Z,27.6
2016-12-08T07:46:56.016Z,27.6
2016-12-08T07:47:56.003Z,27.6
2016-12-08T07:48:58.293Z,27.7
2016-12-08T07:49:59.014Z,27.7
2016-12-08T07:50:56.166Z,27.8
2016-12-08T07:51:58.411Z,27.8
2016-12-08T07:52:56.263Z,27.8
2016-12-08T07:53:59.165Z,27.8
2016-12-08T07:54:56.339Z,27.8
2016-12-08T07:55:56.470Z,27.7
2016-12-08T07:56:56.449Z,27.6
2016-12-08T07:57:58.692Z,27.5
2016-12-08T07:58:56.531Z,27.5
2016-12-08T07:59:56.554Z,27.5
2016-12-08T08:00:56.739Z,27.5
2016-12-08T08:01:56.598Z,27.5
2016-12-08T08:03:00.259Z,27.5
2016-12-08T08:03:57.606Z,27.5
2016-12-08T08:04:59.447Z,27.5
2016-12-08T08:05:59.085Z,27.5
2016-12-08T08:06:56.989Z,27.5
2016-12-08T08:08:04.967Z,27.5
2016-12-08T08:09:00.560Z,27.5
2016-12-08T08:09:57.231Z,27.6
2016-12-08T08:11:39.903Z,27.6
2016-12-08T08:12:40.909Z,27.6
2016-12-08T08:13:40.652Z,27.7
2016-12-08T08:14:36.627Z,27.7
2016-12-08T08:15:38.879Z,27.7
2016-12-08T08:16:39.633Z,27.7
2016-12-08T08:17:37.355Z,27.7
2016-12-08T08:18:36.911Z,27.6
2016-12-08T08:19:39.118Z,27.6
2016-12-08T08:20:37.517Z,27.6
2016-12-08T08:21:39.859Z,27.6
2016-12-08T08:22:37.133Z,27.6
2016-12-08T08:23:37.263Z,27.5
2016-12-08T08:24:37.841Z,26.9
2016-12-08T08:25:39.526Z,26.3
2016-12-08T08:26:37.272Z,25.8
2016-12-08T08:27:37.376Z,25.4
2016-12-08T08:28:38.002Z,25.1
2016-12-08T08:29:40.240Z,24.8
2016-12-08T08:30:37.652Z,24.5
2016-12-08T08:31:38.234Z,24.2
2016-12-08T08:32:39.803Z,24.1
2016-12-08T08:33:37.685Z,24
2016-12-08T08:34:40.519Z,23.9
2016-12-08T08:35:41.237Z,23.8
2016-12-08T08:36:38.514Z,23.7
2016-12-08T08:37:40.022Z,23.6
2016-12-08T08:38:37.926Z,23.5
2016-12-08T08:39:41.286Z,23.4
2016-12-08T08:40:40.428Z,23.4
2016-12-08T08:41:38.784Z,23.4
2016-12-08T08:42:38.193Z,23.3
2016-12-08T08:43:41.065Z,23.2
2016-12-08T08:44:40.374Z,23.2
2016-12-08T08:45:38.857Z,23.1
2016-12-08T08:46:40.610Z,23.1
2016-12-08T08:47:38.451Z,23
2016-12-08T08:48:40.655Z,22.9
2016-12-08T08:49:38.532Z,22.8
2016-12-08T08:50:38.694Z,22.8
2016-12-08T08:51:39.244Z,22.7
2016-12-08T08:52:41.760Z,22.7
2016-12-08T08:53:40.684Z,22.6
2016-12-08T08:54:42.901Z,22.6
2016-12-08T08:55:39.528Z,22.5
2016-12-08T08:56:39.761Z,22.5
2016-12-08T08:57:39.600Z,22.5
2016-12-08T08:58:38.977Z,22.5
2016-12-08T08:59:42.479Z,22.4
2016-12-08T09:00:41.437Z,22.4
2016-12-08T09:01:39.937Z,22.4
2016-12-08T09:02:39.341Z,22.4
2016-12-08T09:03:41.511Z,22.4
2016-12-08T09:04:39.330Z,22.4
2016-12-08T09:05:41.680Z,22.4
2016-12-08T09:06:41.666Z,22.4
2016-12-08T09:07:41.399Z,22.4
2016-12-08T09:08:39.558Z,22.4
2016-12-08T09:09:40.330Z,22.3
2016-12-08T09:10:39.721Z,22.3
2016-12-08T09:11:41.633Z,22.4
2016-12-08T09:12:42.621Z,22.5
2016-12-08T09:13:41.786Z,22.6
2016-12-08T09:14:43.060Z,22.7
2016-12-08T09:15:42.062Z,22.9
2016-12-08T09:16:42.742Z,22.9
2016-12-08T09:17:44.085Z,22.9
2016-12-08T09:18:44.599Z,22.9
2016-12-08T09:19:44.002Z,22.9
2016-12-08T09:20:43.857Z,22.9
2016-12-08T09:21:44.212Z,22.9
2016-12-08T09:22:42.899Z,22.9
2016-12-08T09:23:42.379Z,23
2016-12-08T09:24:42.453Z,23
2016-12-08T09:25:40.896Z,23
2016-12-08T09:26:41.994Z,23
2016-12-08T09:27:42.488Z,23
2016-12-08T09:28:41.627Z,23
2016-12-08T09:29:41.269Z,23
2016-12-08T09:30:42.753Z,23
2016-12-08T09:31:43.685Z,23.1
2016-12-08T09:32:41.091Z,23.1
2016-12-08T09:33:45.350Z,23.1
2016-12-08T09:34:41.445Z,23.1
2016-12-08T09:35:43.434Z,23.2
2016-12-08T09:36:41.437Z,23.2
2016-12-08T09:37:41.708Z,23.2
2016-12-08T09:38:42.813Z,23.2
2016-12-08T09:39:45.275Z,23.3
2016-12-08T09:40:45.594Z,23.3
2016-12-08T09:41:42.699Z,23.3
2016-12-08T09:42:45.205Z,23.4
2016-12-08T09:43:43.903Z,23.4
2016-12-08T09:44:43.338Z,23.4
2016-12-08T09:45:43.387Z,23.5
2016-12-08T09:46:43.057Z,23.5
2016-12-08T09:47:44.148Z,23.5
2016-12-08T09:48:46.516Z,23.6
2016-12-08T09:49:42.146Z,23.6
2016-12-08T09:50:46.211Z,23.6
2016-12-08T09:51:44.761Z,23.7
2016-12-08T09:52:45.539Z,23.7
2016-12-08T09:53:43.829Z,23.8
2016-12-08T09:54:45.844Z,23.8
2016-12-08T09:55:44.531Z,23.8
2016-12-08T09:56:41.834Z,23.9
2016-12-08T09:57:41.792Z,23.9
2016-12-08T09:58:43.188Z,23.9
2016-12-08T09:59:44.327Z,23.9
2016-12-08T10:00:43.143Z,24
2016-12-08T10:01:42.574Z,24
2016-12-08T10:02:45.960Z,24
2016-12-08T10:03:44.879Z,24
2016-12-08T10:04:42.691Z,24
2016-12-08T10:05:43.325Z,24.1
2016-12-08T10:06:43.492Z,24.1
2016-12-08T10:07:46.384Z,24.1
2016-12-08T10:08:45.103Z,24.1
2016-12-08T10:09:47.038Z,24.2
2016-12-08T10:10:44.385Z,24.2
2016-12-08T10:11:47.809Z,24.2
2016-12-08T10:12:44.734Z,24.2
2016-12-08T10:13:46.191Z,24.3
2016-12-08T10:14:45.904Z,24.3
2016-12-08T10:15:48.768Z,24.4
2016-12-08T10:16:45.401Z,24.4
2016-12-08T10:17:43.411Z,24.4
2016-12-08T10:18:42.836Z,24.4
2016-12-08T10:19:46.699Z,24.4
2016-12-08T10:20:43.505Z,24.5
2016-12-08T10:21:46.211Z,24.5
2016-12-08T10:22:45.231Z,24.4
2016-12-08T10:23:43.789Z,24.4
2016-12-08T10:24:47.065Z,24.4
2016-12-08T10:25:45.439Z,24.4
2016-12-08T10:26:45.316Z,24.4
2016-12-08T10:27:46.765Z,24.4
2016-12-08T10:28:45.537Z,24.4
2016-12-08T10:29:46.000Z,24.5
2016-12-08T10:30:46.963Z,24.5
2016-12-08T10:31:44.948Z,24.4
2016-12-08T10:32:47.452Z,24.5
2016-12-08T10:33:45.834Z,24.4
2016-12-08T10:34:47.975Z,24.5
2016-12-08T10:35:47.783Z,24.5
2016-12-08T10:36:44.444Z,24.5
2016-12-08T10:37:49.500Z,24.5
2016-12-08T10:38:45.072Z,24.5
2016-12-08T10:39:47.775Z,24.5
2016-12-08T10:40:46.651Z,24.5
2016-12-08T10:41:49.155Z,24.5
2016-12-08T10:42:44.721Z,24.5
2016-12-08T10:43:46.175Z,24.5
2016-12-08T10:44:48.198Z,24.5
2016-12-08T10:45:47.438Z,24.5
2016-12-08T10:46:46.917Z,24.6
2016-12-08T10:47:47.080Z,24.6
2016-12-08T10:48:44.253Z,24.6
2016-12-08T10:49:45.645Z,24.6
2016-12-08T10:50:44.556Z,24.6
2016-12-08T10:51:47.223Z,24.6
2016-12-08T10:52:47.948Z,24.6
2016-12-08T10:53:45.149Z,24.7
2016-12-08T10:54:46.644Z,24.7
2016-12-08T10:55:49.749Z,24.7
2016-12-08T10:56:44.803Z,24.8
2016-12-08T10:57:48.119Z,24.9
2016-12-08T10:58:46.422Z,24.9
2016-12-08T10:59:49.144Z,24.8
2016-12-08T11:00:48.745Z,24.8
2016-12-08T11:01:48.111Z,24.8
2016-12-08T11:02:51.296Z,24.8
2016-12-08T11:03:45.910Z,24.7
2016-12-08T11:04:49.362Z,24.8
2016-12-08T11:05:47.447Z,24.8
2016-12-08T11:06:46.855Z,24.8
2016-12-08T11:07:47.148Z,24.8
2016-12-08T11:08:46.728Z,24.8
2016-12-08T11:09:48.141Z,24.8
2016-12-08T11:10:48.192Z,24.8
2016-12-08T11:11:47.736Z,24.9
2016-12-08T11:12:49.072Z,24.9
2016-12-08T11:13:46.133Z,24.9
2016-12-08T11:14:46.264Z,24.9
2016-12-08T11:15:47.987Z,24.9
2016-12-08T11:16:46.522Z,25
2016-12-08T11:17:47.986Z,25.2
2016-12-08T11:18:48.122Z,25.1
2016-12-08T11:19:47.276Z,25.1
2016-12-08T11:20:50.189Z,25.1
2016-12-08T11:21:46.071Z,25.1
2016-12-08T11:22:48.393Z,25.1
2016-12-08T11:23:48.247Z,25.1
2016-12-08T11:24:46.228Z,25.1
2016-12-08T11:25:46.445Z,25.1
2016-12-08T11:26:49.969Z,25.1
2016-12-08T11:27:48.630Z,25.1
2016-12-08T11:28:47.634Z,25.1
2016-12-08T11:29:48.713Z,25.2
2016-12-08T11:30:46.573Z,25.2
2016-12-08T11:31:50.543Z,25.2
2016-12-08T11:32:48.824Z,25.2
2016-12-08T11:33:48.857Z,25.2
2016-12-08T11:34:49.564Z,25.2
2016-12-08T11:35:49.493Z,25.2
2016-12-08T11:36:46.963Z,25.2
2016-12-08T11:37:49.921Z,25.3
2016-12-08T11:38:48.314Z,25.3
2016-12-08T11:39:49.314Z,25.4
2016-12-08T11:40:47.916Z,25.4
2016-12-08T11:41:47.934Z,25.4
2016-12-08T11:42:47.284Z,25.5
2016-12-08T11:43:50.227Z,25.5
2016-12-08T11:44:47.413Z,25.5
2016-12-08T11:45:49.625Z,25.5
2016-12-08T11:46:51.702Z,25.5
2016-12-08T11:47:51.106Z,25.5
2016-12-08T11:48:47.637Z,25.5
2016-12-08T11:49:48.110Z,25.6
2016-12-08T11:50:50.377Z,25.6
2016-12-08T11:51:48.463Z,25.6
2016-12-08T11:52:47.672Z,25.6
2016-12-08T11:53:49.086Z,25.7
2016-12-08T11:54:50.904Z,25.7
2016-12-08T11:55:51.555Z,25.8
2016-12-08T11:56:49.304Z,25.8
2016-12-08T11:57:50.440Z,25.9
2016-12-08T11:58:53.949Z,25.9
2016-12-08T11:59:49.235Z,25.9
2016-12-08T12:00:50.915Z,25.9
2016-12-08T12:01:49.566Z,25.9
2016-12-08T12:02:48.919Z,25.8
2016-12-08T12:03:54.764Z,25.8
2016-12-08T12:04:50.222Z,25.8
2016-12-08T12:05:51.007Z,25.8
2016-12-08T12:06:52.246Z,25.7
2016-12-08T12:07:50.621Z,25.6
2016-12-08T12:08:50.765Z,25.2
2016-12-08T12:09:49.356Z,24.8
2016-12-08T12:10:49.304Z,24.5
2016-12-08T12:11:50.038Z,24.2
2016-12-08T12:12:53.534Z,23.9
2016-12-08T12:13:50.945Z,23.7
2016-12-08T12:14:53.200Z,23.4
2016-12-08T12:15:58.709Z,23.1
2016-12-08T12:16:52.259Z,22.9
2016-12-08T12:17:54.657Z,22.9
2016-12-08T12:18:51.553Z,22.7
2016-12-08T12:19:57.292Z,22.6
2016-12-08T12:20:49.379Z,22.6
2016-12-08T12:21:49.155Z,22.5
2016-12-08T12:22:52.612Z,22.5
2016-12-08T12:23:51.371Z,22.4
2016-12-08T12:24:51.243Z,22.3
2016-12-08T12:25:51.436Z,22.2
2016-12-08T12:26:51.686Z,22.1
2016-12-08T12:27:51.167Z,22.1
2016-12-08T12:28:50.126Z,22
2016-12-08T12:29:53.294Z,21.9
2016-12-08T12:30:51.795Z,21.8
2016-12-08T12:31:53.015Z,21.8
2016-12-08T12:32:52.517Z,21.8
2016-12-08T12:33:49.665Z,21.8
2016-12-08T12:34:49.644Z,21.8
2016-12-08T12:35:52.485Z,21.7
2016-12-08T12:36:51.876Z,21.6
2016-12-08T12:37:51.974Z,21.5
2016-12-08T12:38:50.611Z,21.5
2016-12-08T12:39:49.824Z,21.5
2016-12-08T12:40:52.084Z,21.4
2016-12-08T12:41:49.967Z,21.4
2016-12-08T12:42:52.765Z,21.3
2016-12-08T12:43:53.381Z,21.3
2016-12-08T12:44:53.596Z,21.2
2016-12-08T12:45:53.128Z,21.2
2016-12-08T12:46:53.531Z,21.2
2016-12-08T12:47:52.617Z,21.2
2016-12-08T12:48:50.360Z,21.2
2016-12-08T12:49:53.891Z,21.2
2016-12-08T12:50:52.653Z,21.1
2016-12-08T12:51:53.363Z,21.1
2016-12-08T12:52:50.676Z,21.1
2016-12-08T12:53:50.629Z,21
2016-12-08T12:54:51.933Z,21
2016-12-08T12:55:53.244Z,21
2016-12-08T12:56:51.840Z,21
2016-12-08T12:57:53.481Z,21.1
2016-12-08T12:58:51.265Z,21
2016-12-08T12:59:53.081Z,21.1
2016-12-08T13:00:52.007Z,21.1
2016-12-08T13:01:50.946Z,21.1
2016-12-08T13:02:51.402Z,21.1
2016-12-08T13:03:54.413Z,21.1
2016-12-08T13:04:54.354Z,21.2
2016-12-08T13:05:51.083Z,21.3
2016-12-08T13:06:51.905Z,21.3
2016-12-08T13:07:51.291Z,21.3
2016-12-08T13:08:51.291Z,21.3
2016-12-08T13:09:51.462Z,21.3
2016-12-08T13:10:53.616Z,21.3
2016-12-08T13:11:51.553Z,21.4
2016-12-08T13:12:52.083Z,21.4
2016-12-08T13:13:55.159Z,21.4
2016-12-08T13:14:58.117Z,21.3
2016-12-08T13:15:55.790Z,21.3
2016-12-08T13:16:52.358Z,21.4
2016-12-08T13:17:56.323Z,21.4
2016-12-08T13:18:53.626Z,21.3
2016-12-08T13:19:54.306Z,21.4
2016-12-08T13:20:51.819Z,21.4
2016-12-08T13:21:52.692Z,21.4
2016-12-08T13:22:52.802Z,21.4
2016-12-08T13:23:52.069Z,21.5
2016-12-08T13:24:53.237Z,21.5
2016-12-08T13:25:52.114Z,21.5
2016-12-08T13:26:54.990Z,21.5
2016-12-08T13:27:52.270Z,21.5